aviador You're here:

ZSHC Decoded Metar

HANGZHOU in CHINA
Report Time2017-08-20 13:30:00
UTC Time2017-08-20 13:40:52
Flight Rules mvfr MVFR
Wind080° at 4 kt
W.Decomp.*RWY 07: 3.9 kt HW 1.0 kt RCW
W.Rank080° ranks 2
Current wind is below 080° avg. (6.4)
Visibility6000 m
Phenomena:N/A
Clouds:N/A
Expected CloudBase > 400 ft AGL from Temp-Dew spread
CeilingNone
Temp28°C (ISA +13)
Dew Point27°C (94% RH)
Heat Index34.5°C
QNH1006 hPa
Density Alt2,372 ft
Elevation141 ft
Report Wrong Elevation
Raw Report
METAR ZSHC 201330Z 08002MPS 6000 NSC 28/27 Q1006 NOSIG=

Extra information for ZSHC:More info

Metar Taf Metar & Taf Last 4 Metars F.Rules Stats Wind Profile Meteogram Temp Stats Airport Information Weather charts Add Link Nearby VenuesMetar ALERT Operation Metar Decoded Social comments